Strona główna
METAR-TAF:

METAR-TAF

Lotnisko :

Port lotniczy Kerteh

Kerteh, Malezja

Szerokość geograficzna: 04-32-15N, Długość geograficzna: 103-25-36E, wysokość: 5 m

Aktualna obserwacja pogody

Raport powstał 1 godzina i 3 minut temu, godzina 22:00 UTC
Cisza
Temperatura 25°C
Wilgotność 94%
Ciśnienie 1011 hPa

METAR: WMKE 302200Z AUTO 00000KT //// // ////// 25/24 Q1011

czas: 07:03 (23:03 UTC)

Prognoza

Raport powstał 6 godziny i 3 minut temu, godzina 17:00 UTC
Prognoza ważna od 30 godzina 18 UTC do 31 godzina 18 UTC
Wiatr 2 kt z kierunków zmiennych
Widzialność 10 km lub więcej
Mało chmury na wysokości 1500 ft
Stopniowe zmiany
od 31 godzina 03 UTC do 31 godzina 05 UTC
Wiatr 6 kt od południowy wschód
Mało chmury na wysokości 1400 ft
Stopniowe zmiany
od 31 godzina 12 UTC do 31 godzina 13 UTC
Wiatr 3 kt z kierunków zmiennych
Mało chmury na wysokości 1500 ft

TAF: WMKE 301700Z 3018/3118 VRB02KT 9999 FEW015 BECMG 3103/3105 13006KT FEW014 BECMG 3112/3113 VRB03KT FEW015

Obserwacja i prognoza pogody dla ponad 4000 lotnisk (raport METAR i TAF).

Dostępne stacje oznaczono żółtymi i czerwonymi punktami na mapie.

Najedź kursorem aby zobaczyć nazwę stacji.

Kliknij aby zobaczyć obserwacje i prognozy pogody.

Aby zmienić mapę: kliknij na zielony przycisk z czarnym krzyżykiem, aby powiększyć; na zielony przycisk z myślnikiem, aby pomniejszyć; na zielone strzałki, aby przejść do map sąsiednich.


METAR-TAF: